This is the latest recevied weather packets stored in our database for station/object DK7AK. If no packets are shown the sender has not sent any weather packets the latest 10 day(s).
| Time | Temp. | Humidity | Pressure | Rain* | Wind** | Luminosity | Snow |
|---|---|---|---|---|---|---|---|
| 1776966004 | 18.33° C | 15% | 1015.8 hPa | 0 mm | - | - | - |
| 1776960904 | 20.56° C | 15% | 1015.7 hPa | 0 mm | - | - | - |
| 1776959704 | 21.11° C | 15% | 1016 hPa | 0 mm | - | - | - |
| 1776957604 | 21.67° C | 15% | 1016.4 hPa | 0 mm | - | - | - |
| 1776955204 | 21.11° C | 15% | 1016.7 hPa | 0 mm | - | - | - |
| 1776954304 | 21.11° C | 15% | 1016.7 hPa | 0 mm | - | - | - |
| 1776954004 | 21.11° C | 15% | 1017 hPa | 0 mm | - | - | - |
| 1776953404 | 21.11° C | 15% | 1016.9 hPa | 0 mm | - | - | - |
| 1776952804 | 21.11° C | 15% | 1017.1 hPa | 0 mm | - | - | - |
| 1776952204 | 21.11° C | 15% | 1017 hPa | 0 mm | - | - | - |
| 1776951604 | 21.11° C | 15% | 1017.2 hPa | 0 mm | - | - | - |
| 1776950704 | 21.11° C | 15% | 1017.3 hPa | 0 mm | - | - | - |
| 1776950404 | 21.11° C | 15% | 1017.5 hPa | 0 mm | - | - | - |
| 1776948004 | 21.11° C | 15% | 1018 hPa | 0 mm | - | - | - |
| 1776945304 | 19.44° C | 20% | 1018.6 hPa | 0 mm | - | - | - |
| 1776945004 | 20° C | 15% | 1018.6 hPa | 0 mm | - | - | - |
| 1776944104 | 18.89° C | 20% | 1018.7 hPa | 0 mm | - | - | - |
| 1776943504 | 18.33° C | 15% | 1018.9 hPa | 0 mm | - | - | - |
| 1776939004 | 16.67° C | 30% | 1019.8 hPa | 0 mm | - | - | - |
| 1776937504 | 16.11° C | 31% | 1019.9 hPa | 0 mm | - | - | - |
| 1776936904 | 15.56° C | 32% | 1020.1 hPa | 0 mm | - | - | - |
| 1776934504 | 14.44° C | 33% | 1020.4 hPa | 0 mm | - | - | - |
| 1776934204 | 14.44° C | 37% | 1020.6 hPa | 0 mm | - | - | - |
| 1776933904 | 13.89° C | 37% | 1020.4 hPa | 0 mm | - | - | - |
* Rain latest hour (hover to see other rain measurements)
** Current wind speed in m/s (hover to see current wind gust speed)